Time;durP1;ratioP1;P1;durP2;ratioP2;P2;SDS_P1;SDS_P2;PMS_P1;PMS_P2;Temp;Humidity;BMP_temperature;BMP_pressure;BME280_temperature;BME280_humidity;BME280_pressure;Samples;Min_cycle;Max_cycle;Signal;HPM_P1;HPM_P2
2022/09/26 00:02:14;;;;;;;4.10;1.40;;;11.60;99.90;;;;;;5009206;28;20045;-77
2022/09/26 00:04:39;;;;;;;4.28;1.38;;;12.00;99.90;;;;;;5011569;28;20421;-78
2022/09/26 00:07:05;;;;;;;5.50;1.50;;;11.50;99.90;;;;;;5047314;28;20042;-78
2022/09/26 00:09:31;;;;;;;1.95;1.20;;;11.60;99.90;;;;;;5028475;28;20055;-78
2022/09/26 00:11:56;;;;;;;2.85;1.27;;;11.50;99.90;;;;;;5011879;28;20143;-78
2022/09/26 00:14:27;;;;;;;3.35;1.67;;;11.50;99.90;;;;;;5013638;28;20202;-77
2022/09/26 00:16:53;;;;;;;4.72;1.65;;;11.60;99.90;;;;;;5043654;28;20219;-77
2022/09/26 00:19:19;;;;;;;3.50;1.60;;;11.50;99.90;;;;;;5034812;28;20277;-77
2022/09/26 00:21:46;;;;;;;3.67;1.60;;;11.80;99.90;;;;;;5028867;28;20115;-78
2022/09/26 00:24:15;;;;;;;5.53;1.80;;;11.60;99.90;;;;;;5034125;28;20029;-79
2022/09/26 00:26:52;;;;;;;4.50;1.88;;;11.60;99.90;;;;;;5026605;28;20289;-79
2022/09/26 00:29:17;;;;;;;3.42;1.80;;;11.60;99.90;;;;;;5019061;28;20032;-79
2022/09/26 00:31:46;;;;;;;3.05;1.63;;;11.70;99.90;;;;;;5016027;28;20043;-77
2022/09/26 00:34:14;;;;;;;5.88;1.70;;;11.80;99.90;;;;;;5024462;28;20036;-77
2022/09/26 00:36:39;;;;;;;4.35;1.92;;;11.60;99.90;;;;;;5025473;28;20037;-78
2022/09/26 00:39:11;;;;;;;3.08;1.90;;;11.70;99.90;;;;;;5025031;28;20113;-78
2022/09/26 00:44:48;;;;;;;2.90;1.92;;;11.30;99.90;;;;;;5004636;28;20081;-78
2022/09/26 00:47:38;;;;;;;4.72;1.80;;;11.80;99.90;;;;;;5022429;28;20207;-78
2022/09/26 00:50:12;;;;;;;3.65;1.90;;;11.80;99.90;;;;;;5040860;28;20314;-79
2022/09/26 00:52:57;;;;;;;4.07;1.92;;;11.80;99.90;;;;;;5026140;28;20064;-78
2022/09/26 00:55:24;;;;;;;;;;;11.70;99.90;;;;;;5041799;28;20040;-78
2022/09/26 00:57:57;;;;;;;2.42;1.90;;;11.90;99.90;;;;;;5042263;28;19913;-78
2022/09/26 01:00:23;;;;;;;3.78;1.70;;;11.90;99.90;;;;;;5039521;28;20041;-78
2022/09/26 01:02:50;;;;;;;2.53;1.80;;;11.70;99.90;;;;;;5025818;28;20086;-78
2022/09/26 01:05:18;;;;;;;4.20;1.85;;;11.70;99.90;;;;;;5046165;28;20044;-78
2022/09/26 01:07:44;;;;;;;3.42;1.85;;;11.70;99.90;;;;;;5005004;28;20025;-78
2022/09/26 01:10:12;;;;;;;3.20;2.00;;;11.80;99.90;;;;;;5025466;28;20051;-78
2022/09/26 01:12:37;;;;;;;4.72;1.95;;;11.70;99.90;;;;;;5049585;28;20033;-80
2022/09/26 01:15:06;;;;;;;5.93;2.35;;;11.70;99.90;;;;;;5037219;28;20450;-79
2022/09/26 01:17:38;;;;;;;3.47;1.98;;;11.70;99.90;;;;;;5050057;28;20247;-80
2022/09/26 01:20:36;;;;;;;5.65;2.40;;;11.70;99.90;;;;;;5052710;28;20029;-80
2022/09/26 01:23:23;;;;;;;2.58;1.80;;;11.80;99.90;;;;;;5030912;28;20037;-79
2022/09/26 01:25:58;;;;;;;2.80;1.98;;;11.80;99.90;;;;;;5019751;28;20386;-79
2022/09/26 01:28:56;;;;;;;10.35;2.40;;;11.70;99.90;;;;;;5029593;28;20092;-79
2022/09/26 01:34:50;;;;;;;4.90;2.08;;;11.70;99.90;;;;;;5042907;28;20040;-79
2022/09/26 01:37:38;;;;;;;;;;;11.60;99.90;;;;;;5028508;28;20037;-78
2022/09/26 01:40:14;;;;;;;3.10;1.70;;;11.80;99.90;;;;;;5054542;28;20230;-77
2022/09/26 01:43:02;;;;;;;5.85;2.38;;;11.70;99.90;;;;;;5062539;28;20247;-74
2022/09/26 01:45:42;;;;;;;5.03;2.30;;;11.80;99.90;;;;;;5072591;28;20051;-76
2022/09/26 01:48:20;;;;;;;4.25;2.53;;;11.60;99.90;;;;;;5044815;28;20091;-77
2022/09/26 01:51:01;;;;;;;5.88;2.85;;;11.80;99.90;;;;;;5070625;28;20027;-76
2022/09/26 01:53:42;;;;;;;6.03;2.95;;;11.60;99.90;;;;;;5074012;28;20064;-76
2022/09/26 01:56:19;;;;;;;4.57;2.40;;;11.70;99.90;;;;;;5102561;28;20614;-77
2022/09/26 01:59:00;;;;;;;7.28;2.40;;;11.80;99.90;;;;;;5081582;28;20048;-77
2022/09/26 02:01:30;;;;;;;8.52;2.92;;;11.80;99.90;;;;;;5071985;28;20024;-76
2022/09/26 02:04:00;;;;;;;5.80;2.28;;;11.70;99.90;;;;;;5070554;28;20032;-77
2022/09/26 02:06:36;;;;;;;4.82;2.65;;;11.80;99.90;;;;;;5066220;28;20044;-76
2022/09/26 02:09:18;;;;;;;4.32;2.55;;;11.60;99.90;;;;;;5066700;28;20078;-76
2022/09/26 02:11:48;;;;;;;5.13;2.30;;;11.70;99.90;;;;;;5069639;28;20033;-77
2022/09/26 02:14:34;;;;;;;4.90;2.70;;;11.80;99.90;;;;;;5080088;28;20028;-77
2022/09/26 02:17:24;;;;;;;6.65;2.47;;;11.60;99.90;;;;;;5057954;28;20305;-76
2022/09/26 02:20:54;;;;;;;4.18;2.15;;;11.70;99.90;;;;;;5067097;28;20306;-78
2022/09/26 02:24:01;;;;;;;5.63;2.25;;;11.70;99.90;;;;;;5065406;28;20031;-78
2022/09/26 02:27:06;;;;;;;7.85;3.30;;;12.50;99.90;;;;;;4951350;28;20038;-79
2022/09/26 02:30:27;;;;;;;4.25;2.20;;;11.80;99.90;;;;;;4926052;28;20429;-80
2022/09/26 02:33:14;;;;;;;5.65;2.63;;;12.20;99.90;;;;;;4933615;29;20203;-80
2022/09/26 02:43:26;;;;;;;6.40;2.47;;;11.90;99.90;;;;;;4820946;29;20125;-78
2022/09/26 02:46:09;;;;;;;5.97;2.50;;;10.60;99.90;;;;;;4833710;29;20134;-79
2022/09/26 02:49:11;;;;;;;3.85;2.75;;;11.60;99.90;;;;;;4827402;29;20070;-77
2022/09/26 02:51:58;;;;;;;10.35;2.95;;;12.80;99.90;;;;;;4970828;28;20041;-80
2022/09/26 02:54:46;;;;;;;9.10;3.42;;;11.60;99.90;;;;;;5058927;28;20039;-77
2022/09/26 02:57:39;;;;;;;5.90;3.00;;;12.00;99.90;;;;;;5074362;28;20047;-79
2022/09/26 03:00:19;;;;;;;6.70;3.38;;;11.60;99.90;;;;;;5060970;28;20036;-79
2022/09/26 03:03:16;;;;;;;9.88;3.58;;;11.50;99.90;;;;;;5072742;28;20020;-78
2022/09/26 03:05:44;;;;;;;8.90;3.50;;;11.50;99.90;;;;;;5072796;28;20032;-83
2022/09/26 03:08:25;;;;;;;7.35;3.80;;;11.50;99.90;;;;;;5017305;28;20318;-82
2022/09/26 03:10:53;;;;;;;4.32;2.70;;;11.50;99.90;;;;;;5053820;28;20058;-81
2022/09/26 03:13:33;;;;;;;5.72;3.22;;;11.50;99.90;;;;;;5046648;28;20063;-81
2022/09/26 03:16:00;;;;;;;7.20;3.58;;;11.60;99.90;;;;;;5063272;28;20037;-79
2022/09/26 03:18:54;;;;;;;8.77;3.40;;;11.70;99.90;;;;;;5047343;28;20059;-86
2022/09/26 03:21:24;;;;;;;5.63;3.33;;;11.70;99.90;;;;;;5061969;28;20041;-80
2022/09/26 03:24:02;;;;;;;4.93;3.00;;;11.20;99.90;;;;;;5055580;28;20091;-82
2022/09/26 03:26:50;;;;;;;4.57;3.47;;;11.70;99.90;;;;;;5046233;28;20058;-78
2022/09/26 03:29:19;;;;;;;5.07;3.30;;;12.00;99.90;;;;;;5031666;28;20025;-77
2022/09/26 03:31:45;;;;;;;5.72;3.65;;;11.60;99.90;;;;;;5028531;28;20036;-80
2022/09/26 03:34:11;;;;;;;6.95;3.63;;;11.60;99.90;;;;;;5046124;28;20032;-77
2022/09/26 03:36:57;;;;;;;5.57;3.80;;;11.70;99.90;;;;;;5046310;28;20027;-80
2022/09/26 03:40:24;;;;;;;6.75;3.75;;;11.60;99.90;;;;;;5047369;28;20098;-81
2022/09/26 03:46:51;;;;;;;6.97;4.28;;;11.80;99.90;;;;;;4974411;28;20323;-80
2022/09/26 03:49:20;;;;;;;9.65;4.45;;;11.90;99.90;;;;;;5010539;28;20037;-78
2022/09/26 03:51:45;;;;;;;8.15;4.47;;;11.70;99.90;;;;;;4990354;28;20045;-82
2022/09/26 03:54:14;;;;;;;5.13;3.70;;;11.60;99.90;;;;;;5036839;28;20079;-82
2022/09/26 03:56:40;;;;;;;8.88;4.75;;;11.60;99.90;;;;;;5025810;28;20068;-77
2022/09/26 03:59:06;;;;;;;8.00;3.90;;;11.90;99.90;;;;;;5026558;28;20087;-80
2022/09/26 04:01:31;;;;;;;5.65;3.90;;;11.70;99.90;;;;;;5038505;28;20103;-78
2022/09/26 04:03:57;;;;;;;8.10;4.18;;;11.90;99.90;;;;;;5027100;28;20033;-85
2022/09/26 04:06:23;;;;;;;9.13;4.75;;;11.70;99.90;;;;;;5042440;28;20067;-76
2022/09/26 04:08:50;;;;;;;6.82;5.25;;;11.80;99.90;;;;;;5008103;28;20033;-81
2022/09/26 04:11:23;;;;;;;8.10;4.30;;;11.80;99.90;;;;;;5032350;28;20045;-81
2022/09/26 04:13:50;;;;;;;8.63;5.25;;;11.90;99.90;;;;;;5027344;28;20071;-76
2022/09/26 04:16:16;;;;;;;7.88;5.10;;;11.90;99.90;;;;;;5041138;28;20104;-78
2022/09/26 04:18:47;;;;;;;7.43;3.95;;;11.90;99.90;;;;;;5044933;28;20033;-78
2022/09/26 04:21:13;;;;;;;7.93;4.40;;;11.60;99.90;;;;;;5042531;28;20147;-80
2022/09/26 04:23:42;;;;;;;4.65;3.75;;;12.00;99.90;;;;;;5003076;28;20045;-77
2022/09/26 04:26:44;;;;;;;5.18;4.05;;;11.90;99.90;;;;;;4993037;28;20040;-79
2022/09/26 04:29:10;;;;;;;5.60;3.97;;;12.90;99.90;;;;;;5013815;28;20076;-79
2022/09/26 04:31:45;;;;;;;6.25;4.03;;;11.80;99.90;;;;;;5037310;28;20053;-78
2022/09/26 04:34:52;;;;;;;3.83;2.83;;;12.70;99.90;;;;;;5025910;28;20040;-80
2022/09/26 04:37:19;;;;;;;8.57;5.30;;;10.50;99.90;;;;;;5019174;28;20277;-79
2022/09/26 04:39:46;;;;;;;5.38;3.63;;;12.40;99.90;;;;;;5004078;28;20184;-83
2022/09/26 04:42:11;;;;;;;10.05;3.97;;;11.70;99.90;;;;;;5010304;28;20096;-82
2022/09/26 04:44:37;;;;;;;4.28;2.97;;;12.00;99.90;;;;;;5010536;28;20056;-81
2022/09/26 04:47:07;;;;;;;5.70;3.63;;;11.70;99.90;;;;;;5036056;28;20227;-81
2022/09/26 04:50:29;;;;;;;10.90;5.25;;;11.90;99.90;;;;;;5020376;28;20184;-78
2022/09/26 04:53:32;;;;;;;6.38;4.63;;;11.60;99.90;;;;;;4899695;29;20043;-79
2022/09/26 04:55:58;;;;;;;6.82;5.20;;;11.70;99.90;;;;;;4909345;29;20262;-81
2022/09/26 05:02:27;;;;;;;5.25;4.10;;;11.90;99.90;;;;;;4878413;29;20119;-82
2022/09/26 05:05:07;;;;;;;4.95;3.72;;;11.70;99.90;;;;;;4911049;28;20295;-78
2022/09/26 05:07:45;;;;;;;7.63;4.97;;;12.20;99.90;;;;;;4950637;28;20039;-80
2022/09/26 05:10:20;;;;;;;9.02;5.25;;;11.90;99.90;;;;;;4994403;28;20121;-81
2022/09/26 05:12:59;;;;;;;7.15;5.07;;;11.60;99.90;;;;;;4985670;28;20038;-81
2022/09/26 05:15:25;;;;;;;10.65;5.55;;;11.80;99.90;;;;;;4968730;28;20092;-80
2022/09/26 05:18:00;;;;;;;7.03;5.57;;;11.60;99.90;;;;;;4982330;28;20039;-83
2022/09/26 05:20:28;;;;;;;8.60;5.82;;;11.80;99.90;;;;;;4969255;28;20117;-80
2022/09/26 05:22:57;;;;;;;8.82;5.70;;;11.90;99.90;;;;;;4975385;28;20086;-81
2022/09/26 05:29:00;;;;;;;11.38;6.45;;;13.10;99.90;;;;;;5035822;28;20334;-80
2022/09/26 05:31:28;;;;;;;4.93;3.95;;;11.70;99.90;;;;;;5035806;28;20060;-82
2022/09/26 05:33:57;;;;;;;8.43;6.28;;;11.80;99.90;;;;;;5062421;28;20336;-84
2022/09/26 05:36:27;;;;;;;9.70;6.22;;;11.70;99.90;;;;;;5028762;28;20025;-80
2022/09/26 05:38:56;;;;;;;8.40;5.78;;;11.50;99.90;;;;;;5040930;28;20072;-80
2022/09/26 05:41:30;;;;;;;6.15;4.32;;;11.60;99.90;;;;;;5039914;28;20132;-81
2022/09/26 05:43:56;;;;;;;7.93;6.18;;;13.00;99.90;;;;;;5027654;28;20099;-80
2022/09/26 05:55:46;;;;;;;;;;;;;;;;;;;;;
2022/09/26 05:59:06;;;;;;;9.77;5.97;;;11.80;99.90;;;;;;4893332;29;20060;-79
2022/09/26 06:01:40;;;;;;;6.93;4.30;;;12.20;99.90;;;;;;4945684;29;20377;-82
2022/09/26 06:04:36;;;;;;;8.43;6.85;;;11.70;99.90;;;;;;4984028;28;20141;-81
2022/09/26 06:07:53;;;;;;;;;;;;;;;;;;;;;
2022/09/26 06:22:12;;;;;;;6.82;4.43;;;11.50;99.90;;;;;;4844772;29;20048;-80
2022/09/26 06:24:38;;;;;;;11.20;6.35;;;11.70;99.90;;;;;;4853968;29;20041;-79
2022/09/26 06:27:10;;;;;;;11.02;5.85;;;11.60;99.90;;;;;;4873546;29;20068;-78
2022/09/26 06:29:44;;;;;;;10.02;6.38;;;11.50;99.90;;;;;;4889890;29;20037;-79
2022/09/26 06:37:09;;;;;;;11.80;6.03;;;10.70;99.90;;;;;;4849841;29;20044;-78
2022/09/26 06:40:45;;;;;;;8.60;4.45;;;10.90;99.90;;;;;;4799812;29;20047;-87
2022/09/26 06:44:53;;;;;;;10.32;6.47;;;11.10;99.90;;;;;;4771088;29;20270;-83
2022/09/26 06:55:29;;;;;;;;;;;;;;;;;;;;;
2022/09/26 07:18:10;;;;;;;5.93;3.77;;;11.20;99.90;;;;;;5585514;22;15239496;-78
2022/09/26 07:20:44;;;;;;;6.95;5.72;;;10.90;99.90;;;;;;6242821;23;20280;-78
2022/09/26 07:23:36;;;;;;;8.25;5.68;;;11.00;99.90;;;;;;6259552;23;20020;-81
2022/09/26 07:26:04;;;;;;;9.73;5.97;;;11.60;99.90;;;;;;6112122;23;20017;-81
2022/09/26 07:28:50;;;;;;;9.88;5.97;;;11.20;99.90;;;;;;6066778;23;20086;-79
2022/09/26 07:31:19;;;;;;;5.88;4.53;;;11.60;99.90;;;;;;6220919;23;20012;-79
2022/09/26 07:33:45;;;;;;;7.32;4.00;;;11.70;99.90;;;;;;6234455;23;20027;-77
2022/09/26 07:36:14;;;;;;;8.55;5.55;;;11.30;99.90;;;;;;6235709;23;20039;-78
2022/09/26 07:38:42;;;;;;;8.60;5.20;;;11.30;99.90;;;;;;6259711;23;20012;-79
2022/09/26 07:41:10;;;;;;;5.43;3.67;;;11.60;99.90;;;;;;6211223;23;20086;-79
2022/09/26 07:43:36;;;;;;;6.25;4.75;;;11.80;99.90;;;;;;6235234;23;20071;-76
2022/09/26 07:51:31;;;;;;;6.57;4.65;;;11.30;99.90;;;;;;6217826;23;20083;-77
2022/09/26 07:53:57;;;;;;;7.88;5.05;;;11.20;99.90;;;;;;6210020;23;20057;-78
2022/09/26 07:56:22;;;;;;;5.53;4.57;;;11.80;99.90;;;;;;6210417;23;20039;-78
2022/09/26 07:58:49;;;;;;;4.88;3.10;;;11.80;99.90;;;;;;6206165;23;20368;-78
2022/09/26 08:01:15;;;;;;;5.72;4.45;;;11.20;99.90;;;;;;6208161;23;20007;-77
2022/09/26 08:03:44;;;;;;;7.65;4.38;;;11.70;99.90;;;;;;6232849;23;20534;-77
2022/09/26 08:06:11;;;;;;;7.15;4.88;;;11.70;99.90;;;;;;6258862;23;20008;-77
2022/09/26 08:08:37;;;;;;;7.22;4.60;;;11.20;99.90;;;;;;6259595;23;20067;-76
2022/09/26 08:11:18;;;;;;;8.68;4.60;;;11.60;99.90;;;;;;6257661;23;20019;-76
2022/09/26 08:13:45;;;;;;;5.70;4.30;;;11.80;99.90;;;;;;6225663;23;20020;-78
2022/09/26 08:16:13;;;;;;;5.38;4.30;;;11.30;99.90;;;;;;6227299;23;20015;-77
2022/09/26 08:18:39;;;;;;;4.82;2.85;;;11.80;99.90;;;;;;6253105;23;20028;-78
2022/09/26 08:21:05;;;;;;;5.03;3.75;;;11.40;99.90;;;;;;6202026;23;20175;-77
2022/09/26 08:23:43;;;;;;;7.00;4.03;;;11.70;99.90;;;;;;6227635;23;20024;-75
2022/09/26 08:26:12;;;;;;;4.80;3.50;;;11.90;99.90;;;;;;6252432;23;20263;-76
2022/09/26 08:28:38;;;;;;;4.18;3.10;;;11.90;99.90;;;;;;6252365;23;20233;-76
2022/09/26 08:31:05;;;;;;;5.25;3.08;;;11.70;99.90;;;;;;6226539;23;20480;-78
2022/09/26 08:33:37;;;;;;;4.07;3.40;;;11.50;99.90;;;;;;6227791;23;20020;-79
2022/09/26 08:36:09;;;;;;;5.55;3.60;;;11.50;99.90;;;;;;6253282;23;20205;-76
2022/09/26 08:38:35;;;;;;;3.40;3.08;;;11.60;99.90;;;;;;6227653;23;20198;-77
2022/09/26 08:41:01;;;;;;;4.13;2.58;;;11.80;99.90;;;;;;6226021;23;20040;-77
2022/09/26 08:50:50;;;;;;;6.15;4.30;;;11.50;99.90;;;;;;6227364;22;20016;-77
2022/09/26 08:53:29;;;;;;;;;;;11.90;99.90;;;;;;6225435;23;20062;-78
2022/09/26 08:55:59;;;;;;;6.30;4.05;;;11.90;99.90;;;;;;6223925;23;19922;-77
2022/09/26 08:58:39;;;;;;;3.50;2.80;;;11.90;99.90;;;;;;6225638;23;20020;-77
2022/09/26 09:01:13;;;;;;;4.20;2.80;;;11.60;99.90;;;;;;6226454;23;20016;-77
2022/09/26 09:03:50;;;;;;;7.18;3.97;;;12.80;99.90;;;;;;6252627;23;20034;-77
2022/09/26 09:06:17;;;;;;;6.43;4.00;;;11.60;99.90;;;;;;6226821;23;20023;-77
2022/09/26 09:08:54;;;;;;;2.90;2.40;;;11.60;99.90;;;;;;6225689;23;20306;-78
2022/09/26 09:11:38;;;;;;;4.90;4.07;;;11.70;99.90;;;;;;6252070;23;20012;-77
2022/09/26 09:14:12;;;;;;;8.00;3.72;;;11.60;99.90;;;;;;6225088;23;20019;-78
2022/09/26 09:16:59;;;;;;;5.05;2.42;;;11.70;99.90;;;;;;6227606;23;20012;-76
2022/09/26 09:19:45;;;;;;;9.57;3.80;;;12.00;99.90;;;;;;6226754;23;20340;-77
2022/09/26 09:22:37;;;;;;;7.63;4.15;;;11.70;99.90;;;;;;6251864;23;20020;-77
2022/09/26 09:25:15;;;;;;;9.10;4.10;;;11.70;99.90;;;;;;6250799;23;20063;-77
2022/09/26 09:28:17;;;;;;;8.45;4.20;;;11.70;99.90;;;;;;6252540;23;20067;-76
2022/09/26 09:30:50;;;;;;;5.00;3.50;;;11.80;99.90;;;;;;6223206;23;20047;-75
2022/09/26 09:33:30;;;;;;;5.50;3.95;;;12.00;99.90;;;;;;6250274;23;20018;-79
2022/09/26 09:36:05;;;;;;;8.40;3.47;;;12.10;99.90;;;;;;6251879;23;20027;-77
2022/09/26 09:38:35;;;;;;;4.70;3.70;;;11.90;99.90;;;;;;6228038;23;20015;-76
2022/09/26 09:41:24;;;;;;;6.63;3.50;;;11.80;99.90;;;;;;6225299;23;20043;-77
2022/09/26 09:43:56;;;;;;;3.53;2.53;;;12.20;99.90;;;;;;6249190;23;20019;-78
2022/09/26 09:46:28;;;;;;;5.25;3.70;;;11.90;99.90;;;;;;6250693;23;20015;-78
2022/09/26 09:49:08;;;;;;;5.60;3.97;;;12.00;99.90;;;;;;6225006;23;20008;-77
2022/09/26 09:51:34;;;;;;;7.85;4.10;;;12.30;99.90;;;;;;6223823;23;20019;-76
2022/09/26 09:54:12;;;;;;;6.85;4.13;;;11.90;99.90;;;;;;6249128;23;20015;-78
2022/09/26 09:56:50;;;;;;;5.60;3.75;;;12.00;99.90;;;;;;6250003;23;20020;-78
2022/09/26 09:59:43;;;;;;;12.30;4.25;;;12.20;99.90;;;;;;6251874;23;20012;-78
2022/09/26 10:02:09;;;;;;;7.25;4.82;;;12.00;99.90;;;;;;6251263;23;20235;-78
2022/09/26 10:05:18;;;;;;;6.20;3.80;;;12.30;99.90;;;;;;6225018;23;20016;-77
2022/09/26 10:07:45;;;;;;;7.28;4.28;;;12.20;99.90;;;;;;6183312;23;20237;-77
2022/09/26 10:10:18;;;;;;;9.60;3.70;;;12.10;99.90;;;;;;6251617;23;20012;-78
2022/09/26 10:12:46;;;;;;;5.60;3.88;;;11.90;99.90;;;;;;6251507;23;20066;-79
2022/09/26 10:15:25;;;;;;;8.98;4.35;;;12.00;99.90;;;;;;6226504;23;20020;-78
2022/09/26 10:18:20;;;;;;;4.82;3.88;;;12.30;99.90;;;;;;6250810;23;20059;-79
2022/09/26 10:21:07;;;;;;;9.80;4.93;;;12.40;99.90;;;;;;6247945;23;20253;-78
2022/09/26 10:23:41;;;;;;;8.82;4.55;;;12.00;99.90;;;;;;6252315;23;20016;-77
2022/09/26 10:26:09;;;;;;;8.85;4.60;;;12.00;99.90;;;;;;6225794;23;20008;-77
2022/09/26 10:28:49;;;;;;;5.65;3.25;;;12.40;99.90;;;;;;6250196;23;20008;-77
2022/09/26 10:31:28;;;;;;;7.70;4.80;;;12.20;99.90;;;;;;6226227;23;20043;-77
2022/09/26 10:34:06;;;;;;;9.32;3.95;;;12.20;99.90;;;;;;6250852;23;20012;-76
2022/09/26 10:36:44;;;;;;;6.47;4.70;;;12.10;99.90;;;;;;6251758;23;20082;-78
2022/09/26 10:43:17;;;;;;;10.00;5.07;;;12.20;99.90;;;;;;6103875;23;20029;-77
2022/09/26 10:45:43;;;;;;;10.65;5.60;;;12.40;99.90;;;;;;6107176;23;20020;-76
2022/09/26 10:48:11;;;;;;;8.93;4.88;;;12.50;99.90;;;;;;6224578;23;20038;-75
2022/09/26 10:50:38;;;;;;;7.57;5.00;;;12.50;99.90;;;;;;6248535;23;20270;-75
2022/09/26 10:53:07;;;;;;;5.57;3.88;;;12.50;99.90;;;;;;6225846;23;20433;-77
2022/09/26 10:55:40;;;;;;;8.85;5.55;;;12.30;99.90;;;;;;6251292;23;20202;-79
2022/09/26 10:58:12;;;;;;;7.57;5.10;;;12.60;99.90;;;;;;6224352;23;20055;-77
2022/09/26 11:00:43;;;;;;;7.93;5.18;;;12.60;99.90;;;;;;6226205;23;20035;-77
2022/09/26 11:03:16;;;;;;;7.90;5.63;;;12.60;99.90;;;;;;6225077;23;20246;-77
2022/09/26 11:05:56;;;;;;;6.43;3.97;;;12.30;99.90;;;;;;6226178;23;20038;-77
2022/09/26 11:08:25;;;;;;;6.97;4.68;;;12.50;99.90;;;;;;6249791;23;20483;-77
2022/09/26 11:10:52;;;;;;;6.40;4.90;;;12.30;99.90;;;;;;6225844;23;20019;-78
2022/09/26 11:13:24;;;;;;;8.73;5.82;;;12.20;99.90;;;;;;6250675;23;20071;-79
2022/09/26 11:16:02;;;;;;;11.38;4.18;;;12.40;99.90;;;;;;6226239;23;20023;-75
2022/09/26 11:18:41;;;;;;;7.53;5.30;;;12.50;99.90;;;;;;6225159;23;20020;-81
2022/09/26 11:21:35;;;;;;;6.95;4.78;;;12.30;99.90;;;;;;6225370;23;20012;-80
2022/09/26 11:24:10;;;;;;;5.70;4.13;;;12.70;99.90;;;;;;6250971;23;20004;-79
2022/09/26 11:27:03;;;;;;;5.05;3.90;;;12.30;99.90;;;;;;6251507;23;20071;-78
2022/09/26 11:29:33;;;;;;;8.75;6.35;;;12.70;99.90;;;;;;6224159;23;20061;-79
2022/09/26 11:31:59;;;;;;;8.45;6.03;;;12.60;99.90;;;;;;6251398;23;20084;-76
2022/09/26 11:34:30;;;;;;;7.85;4.25;;;12.30;99.90;;;;;;6226628;23;20019;-78
2022/09/26 11:37:02;;;;;;;7.10;5.47;;;12.20;99.90;;;;;;6224748;23;20023;-78
2022/09/26 11:40:02;;;;;;;3.83;3.42;;;12.70;99.90;;;;;;6226281;23;20011;-78
2022/09/26 11:42:28;;;;;;;7.18;5.30;;;12.80;99.90;;;;;;6206216;23;20018;-77
2022/09/26 11:44:58;;;;;;;6.38;4.38;;;12.70;99.90;;;;;;6250040;23;20012;-79
2022/09/26 11:47:35;;;;;;;6.50;4.28;;;13.00;99.90;;;;;;6224883;23;20352;-80
2022/09/26 11:50:25;;;;;;;6.65;3.67;;;13.00;99.90;;;;;;6250789;23;20594;-78
2022/09/26 11:53:03;;;;;;;7.35;5.13;;;12.90;99.90;;;;;;6250595;23;20143;-78
2022/09/26 11:55:49;;;;;;;6.68;5.25;;;13.00;99.90;;;;;;6250799;23;20048;-78
2022/09/26 11:58:26;;;;;;;4.68;3.97;;;13.00;99.90;;;;;;6225155;23;20012;-77
2022/09/26 12:01:26;;;;;;;7.82;5.40;;;12.40;99.90;;;;;;6252516;23;20016;-79
2022/09/26 12:04:10;;;;;;;6.72;4.70;;;13.00;99.90;;;;;;6227722;23;20093;-81
2022/09/26 12:06:48;;;;;;;6.90;5.15;;;12.50;99.90;;;;;;6227542;23;20036;-77
2022/09/26 12:09:44;;;;;;;5.45;4.60;;;12.50;99.90;;;;;;6251999;23;20341;-79
2022/09/26 12:12:23;;;;;;;;;;;13.10;99.90;;;;;;6227829;23;20214;-78
2022/09/26 12:15:19;;;;;;;7.93;5.03;;;12.60;99.90;;;;;;6252891;23;19908;-79
2022/09/26 12:18:21;;;;;;;6.38;4.80;;;12.90;99.90;;;;;;6252356;23;20032;-78
2022/09/26 12:21:25;;;;;;;5.97;5.30;;;13.20;99.90;;;;;;6227800;23;20016;-79
2022/09/26 12:23:56;;;;;;;9.90;5.93;;;12.70;99.90;;;;;;6097875;22;20010;-78
2022/09/26 12:26:37;;;;;;;6.70;5.22;;;12.70;99.90;;;;;;6227952;23;20064;-80
2022/09/26 12:29:47;;;;;;;7.05;5.50;;;13.40;99.90;;;;;;6251228;23;20015;-80
2022/09/26 12:32:22;;;;;;;7.60;5.82;;;13.10;99.90;;;;;;6146370;23;20019;-79
2022/09/26 12:35:03;;;;;;;7.00;5.25;;;12.60;99.90;;;;;;6226880;23;20019;-78
2022/09/26 12:38:01;;;;;;;6.30;4.85;;;12.70;99.90;;;;;;6226887;23;20071;-78
2022/09/26 12:41:11;;;;;;;8.88;4.97;;;13.20;99.90;;;;;;6227347;23;20008;-79
2022/09/26 12:43:46;;;;;;;5.50;4.57;;;13.00;99.90;;;;;;6253190;23;20086;-79
2022/09/26 12:46:44;;;;;;;4.97;4.25;;;12.90;99.90;;;;;;6252538;23;20008;-79
2022/09/26 12:49:43;;;;;;;7.70;4.90;;;13.30;99.90;;;;;;6144583;23;20016;-79
2022/09/26 12:52:38;;;;;;;6.28;5.68;;;13.50;99.90;;;;;;6171838;23;20016;-78
2022/09/26 12:55:25;;;;;;;7.80;5.67;;;12.90;99.90;;;;;;6252093;23;20008;-79
2022/09/26 12:58:41;;;;;;;7.40;4.88;;;13.30;99.90;;;;;;6253533;23;20290;-80
2022/09/26 13:01:36;;;;;;;6.05;5.45;;;13.10;99.90;;;;;;6244956;23;20058;-79
2022/09/26 13:04:32;;;;;;;4.85;4.10;;;13.00;99.90;;;;;;6226850;23;20008;-79
2022/09/26 13:06:58;;;;;;;4.35;3.95;;;13.50;99.90;;;;;;6226850;23;20361;-79
2022/09/26 13:09:42;;;;;;;7.25;4.90;;;13.20;99.90;;;;;;6226980;23;20051;-79
2022/09/26 13:12:29;;;;;;;5.28;3.92;;;13.70;99.90;;;;;;6226503;23;20174;-79
2022/09/26 13:15:00;;;;;;;5.38;4.80;;;13.50;99.90;;;;;;6252329;23;20012;-76
2022/09/26 13:17:34;;;;;;;5.57;4.05;;;13.10;99.90;;;;;;6252579;23;20040;-78
2022/09/26 13:20:13;;;;;;;5.15;4.15;;;13.80;99.90;;;;;;6251572;23;20337;-78
2022/09/26 13:22:51;;;;;;;3.13;2.83;;;13.80;99.90;;;;;;6227161;23;20037;-78
2022/09/26 13:25:43;;;;;;;5.72;4.25;;;13.30;99.90;;;;;;6226302;23;20008;-80
2022/09/26 13:28:18;;;;;;;4.60;3.95;;;13.50;99.90;;;;;;6251971;23;20059;-78
2022/09/26 13:30:58;;;;;;;4.20;3.80;;;13.70;99.90;;;;;;6226899;23;20062;-80
2022/09/26 13:33:45;;;;;;;4.45;3.97;;;13.80;99.90;;;;;;6251216;23;20039;-79
2022/09/26 13:36:12;;;;;;;4.05;3.58;;;14.00;99.90;;;;;;6226010;23;20062;-80
2022/09/26 13:38:56;;;;;;;4.90;3.75;;;13.50;99.90;;;;;;6227309;23;20233;-80
2022/09/26 13:41:51;;;;;;;4.47;3.40;;;13.60;99.90;;;;;;6226175;23;20012;-80
2022/09/26 13:44:43;;;;;;;4.53;3.40;;;13.80;99.90;;;;;;6226558;23;20016;-78
2022/09/26 13:47:12;;;;;;;4.30;3.15;;;13.80;99.90;;;;;;6251333;23;20176;-76
2022/09/26 13:50:07;;;;;;;4.25;2.90;;;13.40;99.90;;;;;;6226550;23;20036;-79
2022/09/26 13:52:39;;;;;;;4.68;2.70;;;14.10;99.90;;;;;;6227234;23;20012;-77
2022/09/26 13:55:20;;;;;;;4.07;2.70;;;13.60;99.90;;;;;;6225996;23;20020;-78
2022/09/26 13:58:05;;;;;;;3.50;2.53;;;14.10;99.90;;;;;;6252170;23;20039;-78
2022/09/26 14:00:37;;;;;;;2.80;2.60;;;14.20;99.90;;;;;;6252081;23;20012;-78
2022/09/26 14:03:09;;;;;;;3.13;2.83;;;13.80;99.90;;;;;;6224513;23;20015;-78
2022/09/26 14:05:40;;;;;;;3.10;2.50;;;13.40;99.90;;;;;;6225779;23;20012;-78
2022/09/26 14:11:29;;;;;;;4.22;3.10;;;13.50;99.90;;;;;;6251145;23;20051;-77
2022/09/26 14:14:17;;;;;;;3.45;2.90;;;14.00;99.90;;;;;;6251454;23;20271;-77
2022/09/26 14:16:54;;;;;;;3.85;2.83;;;14.20;99.90;;;;;;6250562;23;20024;-77
2022/09/26 14:19:41;;;;;;;2.90;2.60;;;14.20;99.90;;;;;;6225396;23;20179;-77
2022/09/26 14:22:21;;;;;;;4.38;3.35;;;13.70;99.90;;;;;;6225184;23;20030;-78
2022/09/26 14:24:50;;;;;;;4.13;3.08;;;13.50;99.90;;;;;;6251343;23;20090;-77
2022/09/26 14:27:24;;;;;;;3.83;3.17;;;14.20;99.90;;;;;;6251233;23;20012;-78
2022/09/26 14:30:23;;;;;;;3.72;2.95;;;14.00;99.90;;;;;;6251860;23;20015;-78
2022/09/26 14:32:52;;;;;;;4.03;2.95;;;13.90;99.90;;;;;;6226608;23;20039;-77
2022/09/26 14:35:27;;;;;;;4.13;2.92;;;14.20;99.90;;;;;;6250668;23;20016;-79
2022/09/26 14:37:59;;;;;;;;;;;14.20;99.90;;;;;;6252262;23;20008;-77
2022/09/26 14:40:38;;;;;;;3.63;2.60;;;14.30;99.90;;;;;;6250288;23;19918;-77
2022/09/26 14:43:18;;;;;;;3.70;2.58;;;14.20;99.90;;;;;;6224267;23;20011;-77
2022/09/26 14:46:03;;;;;;;2.30;2.10;;;14.10;99.90;;;;;;6249117;23;20167;-77
2022/09/26 14:48:37;;;;;;;3.33;2.78;;;13.70;99.90;;;;;;6249772;23;20012;-78
2022/09/26 14:51:05;;;;;;;4.63;2.67;;;14.10;99.90;;;;;;6223863;23;20022;-77
2022/09/26 14:53:46;;;;;;;2.95;2.30;;;14.30;99.90;;;;;;6224197;23;20079;-77
2022/09/26 14:56:28;;;;;;;3.58;2.45;;;14.40;99.90;;;;;;6223241;23;20071;-77
2022/09/26 14:59:38;;;;;;;4.00;2.80;;;14.30;99.90;;;;;;6249654;23;20008;-77
2022/09/26 15:02:14;;;;;;;3.85;2.70;;;14.50;99.90;;;;;;6222791;23;20012;-77
2022/09/26 15:05:04;;;;;;;4.28;2.67;;;14.40;99.90;;;;;;6247782;23;20012;-77
2022/09/26 15:07:54;;;;;;;3.75;2.67;;;13.70;99.90;;;;;;6223810;23;20008;-77
2022/09/26 15:10:24;;;;;;;3.05;2.50;;;14.10;99.90;;;;;;6250938;23;20067;-78
2022/09/26 15:12:59;;;;;;;2.72;2.38;;;14.20;99.90;;;;;;6249381;23;20058;-76
2022/09/26 15:15:25;;;;;;;3.08;2.67;;;13.90;99.90;;;;;;6250773;23;20020;-76
2022/09/26 15:17:56;;;;;;;4.85;2.75;;;14.20;99.90;;;;;;6225608;23;20399;-76
2022/09/26 15:20:24;;;;;;;3.65;3.28;;;13.80;99.90;;;;;;6248970;23;20084;-77
2022/09/26 15:22:52;;;;;;;3.85;2.72;;;14.20;99.90;;;;;;6226895;23;20329;-76
2022/09/26 15:25:22;;;;;;;5.10;3.10;;;14.20;99.90;;;;;;6253044;23;20008;-76
2022/09/26 15:27:53;;;;;;;4.57;3.00;;;13.90;99.90;;;;;;6228221;23;20054;-76